Seaspan Cavaler — CFN6639 — position and weather

sailwx.info

Track history (hours):
 
Tides and Currents Weather Stations Pressure Air Temp Water Temp Dewpoint Dewpoint Depression Visibility Wind Speed Wind Dir Waves Ship Positions

Seaspan Cavaler

Last reported at 2018-Jun-23 21:30 UTC. Time now 2018-Jun-23 21:45 UTC.
Position N 49°04' W 123°28'.

Length 24 m.

Type: Towing. MMSI: 316003659.

Date/timePositionNaut miles runAvg speedWind from/ knotsBaromVisibWave heightAir tempDewpointWater temp
2018-Jun-23 21:30N 49°04' W 123°28'9 6.7
2018-Jun-23 20:13N 48°57' W 123°37'1 6.7
2018-Jun-23 20:01N 48°56' W 123°37'3 6.8
2018-Jun-23 19:31N 48°53' W 123°37'1 1.2
2018-Jun-23 18:53N 48°52' W 123°39'0 0.0
2018-Jun-23 18:30N 48°52' W 123°39'0 0.0
2018-Jun-23 17:21N 48°52' W 123°39'0 0.0
2018-Jun-23 16:58N 48°52' W 123°39'0 0.0
2018-Jun-23 14:05N 48°52' W 123°39'0 0.0
2018-Jun-23 13:56N 48°52' W 123°39'0 0.0
2018-Jun-23 03:53N 48°52' W 123°38'2 5.6
2018-Jun-23 03:30N 48°54' W 123°37'5 8.3
2018-Jun-23 02:55N 48°59' W 123°37'34 7.6
2018-Jun-22 22:28N 49°28' W 124°03'6 6.8
2018-Jun-22 21:36N 49°33' W 124°08'2 7.1
2018-Jun-22 21:17N 49°35' W 124°11'5 7.7
2018-Jun-22 20:37N 49°39' W 124°16'1 6.6
2018-Jun-22 20:31N 49°39' W 124°16'2 4.8
2018-Jun-22 20:00N 49°41' W 124°19'2 5.0
2018-Jun-22 19:31N 49°43' W 124°21'3 6.8
2018-Jun-22 19:00N 49°45' W 124°26'3 6.9
2018-Jun-22 18:31N 49°47' W 124°30'4 7.3
2018-Jun-22 18:00N 49°50' W 124°33'3 5.1
2018-Jun-22 17:30N 49°52' W 124°34'0 0.2
2018-Jun-22 17:00N 49°52' W 124°34'0 0.0
2018-Jun-22 16:29N 49°52' W 124°34'0 0.0
2018-Jun-22 16:01N 49°52' W 124°34'0 0.0
2018-Jun-22 15:30N 49°52' W 124°34'0 0.1
2018-Jun-22 15:00N 49°52' W 124°34'2 3.5
2018-Jun-22 14:30N 49°51' W 124°34'4 7.1
2018-Jun-22 14:00N 49°47' W 124°31'4 8.3
2018-Jun-22 13:30N 49°45' W 124°26'4 8.1
2018-Jun-22 13:00N 49°43' W 124°20'5 9.3
2018-Jun-22 12:29N 49°40' W 124°16'5 9.8
2018-Jun-22 11:57N 49°36' W 124°10'510.0
2018-Jun-22 11:29N 49°32' W 124°06'38 8.0
2018-Jun-22 06:46N 48°59' W 123°37'2 5.2
2018-Jun-22 06:22N 48°57' W 123°37'2 5.0
2018-Jun-22 06:01N 48°55' W 123°37'2 4.6
2018-Jun-22 05:30N 48°53' W 123°36'2 2.9
2018-Jun-22 04:59N 48°52' W 123°39'0 0.0
2018-Jun-22 04:04N 48°52' W 123°39'0 0.0
2018-Jun-22 03:57N 48°52' W 123°39'0 0.0
2018-Jun-21 23:22N 48°52' W 123°39'0 0.1
2018-Jun-21 20:47N 48°52' W 123°38'1 2.8
2018-Jun-21 20:31N 48°53' W 123°37'4 7.4
2018-Jun-21 20:00N 48°56' W 123°37'3 6.5
2018-Jun-21 19:29N 48°60' W 123°36'8 4.2
2018-Jun-21 17:39N 49°07' W 123°31'1 4.2
2018-Jun-21 17:23N 49°08' W 123°30'3 4.1
2018-Jun-21 16:43N 49°10' W 123°28'1 4.5
2018-Jun-21 16:27N 49°11' W 123°27'2 5.0
2018-Jun-21 15:59N 49°13' W 123°25'3 5.2
2018-Jun-21 15:30N 49°15' W 123°23'3 5.1
2018-Jun-21 14:59N 49°17' W 123°20'2 5.0
2018-Jun-21 14:30N 49°19' W 123°18'3 7.1
2018-Jun-21 14:00N 49°19' W 123°12'4 8.4
2018-Jun-21 13:31N 49°18' W 123°06'0 0.8
2018-Jun-21 13:00N 49°19' W 123°06'0 0.0
2018-Jun-21 12:30N 49°19' W 123°06'0 0.0
2018-Jun-21 12:00N 49°19' W 123°06'0 0.0
2018-Jun-21 11:30N 49°19' W 123°06'0 0.0
2018-Jun-21 11:01N 49°19' W 123°06'0 0.0
2018-Jun-21 10:31N 49°19' W 123°06'0 0.3
2018-Jun-21 10:01N 49°19' W 123°06'0 0.0
2018-Jun-21 09:30N 49°19' W 123°06'0 0.0
2018-Jun-21 08:58N 49°19' W 123°06'0 0.0
2018-Jun-21 08:31N 49°19' W 123°06'0 0.0
2018-Jun-21 08:01N 49°19' W 123°06'0 0.0
2018-Jun-21 07:31N 49°19' W 123°06'0 0.0
2018-Jun-21 07:01N 49°19' W 123°06'0 0.0
2018-Jun-21 06:31N 49°19' W 123°06'0 0.0
2018-Jun-21 06:01N 49°19' W 123°06'0 0.0
2018-Jun-21 05:31N 49°19' W 123°06'0 0.0
2018-Jun-21 05:01N 49°19' W 123°06'0 0.0
2018-Jun-21 04:31N 49°19' W 123°06'0 0.0
2018-Jun-21 04:01N 49°19' W 123°06'0 0.0
2018-Jun-21 03:31N 49°19' W 123°06'0 0.0
2018-Jun-21 03:00N 49°19' W 123°06'0 0.0
2018-Jun-21 02:30N 49°19' W 123°06'0 0.0
2018-Jun-21 01:59N 49°19' W 123°06'0 0.0
2018-Jun-21 01:30N 49°19' W 123°06'0 0.0
2018-Jun-21 01:00N 49°19' W 123°06'0 0.0
2018-Jun-21 00:29N 49°19' W 123°06'0 0.0
2018-Jun-20 23:57N 49°19' W 123°06'0 0.0
2018-Jun-20 23:30N 49°19' W 123°06'0 0.0
2018-Jun-20 23:00N 49°19' W 123°06'0 0.0
2018-Jun-20 22:28N 49°19' W 123°06'0 0.0
2018-Jun-20 22:00N 49°19' W 123°06'0 0.0
2018-Jun-20 21:30N 49°19' W 123°06'0 0.0
2018-Jun-20 21:01N 49°19' W 123°06'0 0.0
2018-Jun-20 20:31N 49°19' W 123°06'0 0.0
2018-Jun-20 20:00N 49°19' W 123°06'0 0.0
2018-Jun-20 19:31N 49°19' W 123°06'0 0.0
2018-Jun-20 19:01N 49°19' W 123°06'0 0.0
2018-Jun-20 18:30N 49°19' W 123°06'0 0.0
2018-Jun-20 18:00N 49°19' W 123°06'0 0.0
2018-Jun-20 17:31N 49°19' W 123°06'0 0.0
2018-Jun-20 17:00N 49°19' W 123°06'0 0.0
2018-Jun-20 16:31N 49°19' W 123°06'0 0.0
2018-Jun-20 16:01N 49°19' W 123°06'0 0.0
2018-Jun-20 15:31N 49°19' W 123°06'0 0.0
2018-Jun-20 15:00N 49°19' W 123°06'0 0.0
2018-Jun-20 14:31N 49°19' W 123°06'0 0.0
2018-Jun-20 14:01N 49°19' W 123°06'0 0.0
2018-Jun-20 13:29N 49°19' W 123°06'0 0.0
2018-Jun-20 13:00N 49°19' W 123°06'0 0.0
2018-Jun-20 12:31N 49°19' W 123°06'0 0.0
2018-Jun-20 12:01N 49°19' W 123°06'0 0.0
2018-Jun-20 11:31N 49°19' W 123°06'0 0.0
2018-Jun-20 11:01N 49°19' W 123°06'0 0.0
2018-Jun-20 10:31N 49°19' W 123°06'0 0.0
2018-Jun-20 10:01N 49°19' W 123°06'0 0.0
2018-Jun-20 09:30N 49°19' W 123°06'0 0.0
2018-Jun-20 09:00N 49°19' W 123°06'0 0.0
2018-Jun-20 08:30N 49°19' W 123°06'0 0.0
2018-Jun-20 08:01N 49°19' W 123°06'0 0.0
2018-Jun-20 07:31N 49°19' W 123°06'0 0.0
2018-Jun-20 07:01N 49°19' W 123°06'0 0.0
2018-Jun-20 06:31N 49°19' W 123°06'0 0.0
2018-Jun-20 06:01N 49°19' W 123°06'0 0.0
2018-Jun-20 05:30N 49°19' W 123°06'0 0.0
2018-Jun-20 05:01N 49°19' W 123°06'0 0.0
2018-Jun-20 04:30N 49°19' W 123°06'0 0.0
2018-Jun-20 04:01N 49°19' W 123°06'0 0.0
2018-Jun-20 03:30N 49°19' W 123°06'0 0.0
2018-Jun-20 03:01N 49°19' W 123°06'0 0.0
2018-Jun-20 02:30N 49°19' W 123°06'0 0.0
2018-Jun-20 02:01N 49°19' W 123°06'0 0.0
2018-Jun-20 01:31N 49°19' W 123°06'0 0.0
2018-Jun-20 01:00N 49°19' W 123°06'0 0.0
2018-Jun-20 00:31N 49°19' W 123°06'0 0.0
2018-Jun-20 00:01N 49°19' W 123°06'0 0.0
2018-Jun-19 23:31N 49°19' W 123°06'0 0.0
2018-Jun-19 23:00N 49°19' W 123°06'0 0.0
2018-Jun-19 22:31N 49°19' W 123°06'0 0.0
2018-Jun-19 22:01N 49°19' W 123°06'0 0.0
2018-Jun-18 19:37N 49°19' W 123°06'0 0.0
2018-Jun-18 19:29N 49°19' W 123°06'0 0.0
2018-Jun-18 18:59N 49°19' W 123°06'0 0.0
2018-Jun-18 02:24N 49°19' W 123°06'0 0.0
2018-Jun-18 02:00N 49°19' W 123°06'0 0.0
2018-Jun-18 01:30N 49°19' W 123°06'0 0.0
2018-Jun-18 01:00N 49°19' W 123°06'0 0.0
2018-Jun-18 00:30N 49°19' W 123°06'1 2.4
2018-Jun-18 00:00N 49°18' W 123°07'0 0.0
2018-Jun-17 23:28N 49°18' W 123°07'0 0.0
2018-Jun-17 23:00N 49°18' W 123°07'0 0.0
2018-Jun-17 22:30N 49°18' W 123°07'1 2.4
2018-Jun-17 22:01N 49°19' W 123°06'0 0.5
2018-Jun-17 21:31N 49°18' W 123°06'3 6.6
2018-Jun-17 21:00N 49°19' W 123°11'4 8.5
2018-Jun-17 20:30N 49°17' W 123°17'5 8.9
2018-Jun-17 20:00N 49°13' W 123°18'4 8.5
2018-Jun-17 19:30N 49°09' W 123°19'4 5.9
2018-Jun-17 18:48N 49°08' W 123°13'311.9
2018-Jun-17 18:31N 49°07' W 123°08'610.6
2018-Jun-17 17:59N 49°09' W 123°01'3 5.9
2018-Jun-17 17:30N 49°10' W 122°56'2 4.5
2018-Jun-17 17:00N 49°12' W 122°54'1 2.4
2018-Jun-17 16:30N 49°11' W 122°55'2 4.1
2018-Jun-17 16:00N 49°09' W 122°58'2 3.2
2018-Jun-17 15:30N 49°09' W 123°00'2 4.6
2018-Jun-17 15:00N 49°08' W 123°03'3 4.8
2018-Jun-17 14:29N 49°07' W 123°07'2 4.5
2018-Jun-17 14:00N 49°07' W 123°10'2 4.4
2018-Jun-17 13:30N 49°08' W 123°13'2 4.2
2018-Jun-17 13:00N 49°07' W 123°16'2 4.5
2018-Jun-17 12:30N 49°06' W 123°19'3 6.3
2018-Jun-17 12:00N 49°09' W 123°21'3 6.2
2018-Jun-17 11:30N 49°12' W 123°22'3 5.8
2018-Jun-17 11:00N 49°15' W 123°22'2 3.9
2018-Jun-17 10:29N 49°17' W 123°23'2 3.5
2018-Jun-17 09:59N 49°17' W 123°25'3 5.4
2018-Jun-17 09:30N 49°19' W 123°29'22 5.8
2018-Jun-17 05:42N 49°28' W 123°60'1 5.9
2018-Jun-17 05:27N 49°29' W 124°01'3 6.4
2018-Jun-17 05:00N 49°31' W 124°04'4 6.8
2018-Jun-17 04:28N 49°33' W 124°08'3 6.8
2018-Jun-17 03:59N 49°36' W 124°11'4 7.1
2018-Jun-17 03:29N 49°39' W 124°15'3 6.5
2018-Jun-17 03:00N 49°41' W 124°18'3 6.2
2018-Jun-17 02:30N 49°43' W 124°21'3 6.4
2018-Jun-17 02:00N 49°45' W 124°26'3 6.1
2018-Jun-17 01:30N 49°46' W 124°29'3 6.3
2018-Jun-17 01:01N 49°49' W 124°33'3 6.3
2018-Jun-17 00:30N 49°51' W 124°35'1 1.7
2018-Jun-17 00:01N 49°52' W 124°34'0 0.1
2018-Jun-16 23:31N 49°52' W 124°34'0 0.9
2018-Jun-16 23:00N 49°52' W 124°34'2 4.1
2018-Jun-16 22:30N 49°50' W 124°33'3 5.3
2018-Jun-16 22:00N 49°47' W 124°31'3 5.3
2018-Jun-16 21:30N 49°46' W 124°28'3 5.3
2018-Jun-16 21:00N 49°45' W 124°24'2 4.8
2018-Jun-16 20:29N 49°43' W 124°21'2 4.3
2018-Jun-16 20:00N 49°42' W 124°18'2 4.2
2018-Jun-16 19:30N 49°40' W 124°16'2 4.1
2018-Jun-16 19:00N 49°39' W 124°14'2 4.3
2018-Jun-16 18:30N 49°37' W 124°12'2 4.6
2018-Jun-16 18:00N 49°36' W 124°09'2 4.3
2018-Jun-16 17:30N 49°34' W 124°07'2 4.1
2018-Jun-16 17:00N 49°32' W 124°05'2 4.2
2018-Jun-16 16:30N 49°31' W 124°04'2 4.2
2018-Jun-16 15:59N 49°29' W 124°02'8 4.9
2018-Jun-16 14:20N 49°25' W 123°51'12 4.9
2018-Jun-16 11:59N 49°22' W 123°33'3 5.9
2018-Jun-16 11:28N 49°23' W 123°29'3 5.9
2018-Jun-16 10:59N 49°24' W 123°25'5 6.0
2018-Jun-16 10:13N 49°25' W 123°18'2 4.3
2018-Jun-16 09:52N 49°24' W 123°18'2 4.7
2018-Jun-16 09:30N 49°22' W 123°19'1 3.0
2018-Jun-16 09:01N 49°21' W 123°19'3 6.3
2018-Jun-16 08:30N 49°18' W 123°18'3 6.2
2018-Jun-16 08:00N 49°14' W 123°19'3 5.4
2018-Jun-16 07:31N 49°12' W 123°19'2 4.5
2018-Jun-16 07:00N 49°10' W 123°19'2 4.3
2018-Jun-16 06:30N 49°07' W 123°19'3 2.9
2018-Jun-16 05:35N 49°07' W 123°15'1 6.0
2018-Jun-16 05:26N 49°08' W 123°14'3 6.6
2018-Jun-16 04:59N 49°07' W 123°10'3 6.3
2018-Jun-16 04:29N 49°07' W 123°05'3 6.2
2018-Jun-16 04:00N 49°09' W 123°01'2 4.6
2018-Jun-16 03:30N 49°09' W 122°58'0 0.9
2018-Jun-16 03:00N 49°09' W 122°57'0 0.0
2018-Jun-16 02:30N 49°09' W 122°57'3 5.8
2018-Jun-16 02:00N 49°12' W 122°54'3 5.1
2018-Jun-16 01:30N 49°10' W 122°57'1 1.3
2018-Jun-16 01:00N 49°09' W 122°58'3 6.6
2018-Jun-16 00:30N 49°09' W 123°03'3 6.9
2018-Jun-16 00:00N 49°07' W 123°07'3 6.7
2018-Jun-15 23:29N 49°07' W 123°12'3 6.6
2018-Jun-15 23:00N 49°07' W 123°17'3 5.0
2018-Jun-15 22:31N 49°08' W 123°20'5 8.6
2018-Jun-15 21:59N 49°11' W 123°24'4 8.6
2018-Jun-15 21:30N 49°16' W 123°26'10 8.2
2018-Jun-15 20:20N 49°25' W 123°27'6 1.1
2018-Jun-15 14:24N 49°31' W 123°29'2 3.6
2018-Jun-15 13:54N 49°30' W 123°28'2 5.6
2018-Jun-15 13:30N 49°27' W 123°28'2 4.8
2018-Jun-15 12:59N 49°25' W 123°26'3 4.7
2018-Jun-15 12:23N 49°22' W 123°26'2 4.9
2018-Jun-15 11:58N 49°20' W 123°27'3 5.5
2018-Jun-15 11:30N 49°18' W 123°26'3 6.1
2018-Jun-15 11:00N 49°15' W 123°25'3 6.3
2018-Jun-15 10:29N 49°11' W 123°25'3 5.8
2018-Jun-15 09:58N 49°08' W 123°24'3 6.1
2018-Jun-15 09:29N 49°07' W 123°20'4 7.9
2018-Jun-15 08:59N 49°08' W 123°15'5 9.4
2018-Jun-15 08:29N 49°07' W 123°08'5 9.3
2018-Jun-15 08:00N 49°09' W 123°02'3 6.5
2018-Jun-15 07:30N 49°10' W 122°57'0 0.0
2018-Jun-15 07:00N 49°10' W 122°57'0 0.0
2018-Jun-15 06:30N 49°10' W 122°57'0 0.0
2018-Jun-15 06:00N 49°10' W 122°57'0 0.0
2018-Jun-15 05:30N 49°10' W 122°57'0 0.0
2018-Jun-15 04:59N 49°10' W 122°57'0 0.0
2018-Jun-15 04:30N 49°10' W 122°57'0 0.0
2018-Jun-15 04:00N 49°10' W 122°57'0 0.0
2018-Jun-15 03:30N 49°10' W 122°57'0 0.0
2018-Jun-15 03:00N 49°10' W 122°57'0 0.0
2018-Jun-15 02:30N 49°10' W 122°57'0 0.0
2018-Jun-15 02:00N 49°10' W 122°57'0 0.0
2018-Jun-15 01:30N 49°10' W 122°57'0 0.0
2018-Jun-15 01:00N 49°10' W 122°57'0 0.8
2018-Jun-15 00:30N 49°09' W 122°57'0 0.0
2018-Jun-15 00:00N 49°09' W 122°57'0 0.0
2018-Jun-14 23:28N 49°09' W 122°57'3 6.6
2018-Jun-14 23:00N 49°12' W 122°55'0 0.3
2018-Jun-14 22:31N 49°12' W 122°55'0 0.0
2018-Jun-14 22:00N 49°12' W 122°55'0 0.0
2018-Jun-14 21:30N 49°12' W 122°55'0 0.0
2018-Jun-14 21:00N 49°12' W 122°55'0 0.0
2018-Jun-14 20:30N 49°12' W 122°55'0 0.0
2018-Jun-14 20:00N 49°12' W 122°55'0 0.0
2018-Jun-14 19:30N 49°12' W 122°55'0 0.0
2018-Jun-14 19:00N 49°12' W 122°55'0 0.0
2018-Jun-14 18:30N 49°12' W 122°55'0 0.0
2018-Jun-14 18:00N 49°12' W 122°55'0 0.0
2018-Jun-14 17:30N 49°12' W 122°55'0 0.0
2018-Jun-14 17:00N 49°12' W 122°55'0 0.0
2018-Jun-14 16:30N 49°12' W 122°55'0 0.0
2018-Jun-14 16:00N 49°12' W 122°55'0 0.0
2018-Jun-14 15:30N 49°12' W 122°55'0 0.0
2018-Jun-14 14:59N 49°12' W 122°55'0 0.0
2018-Jun-14 14:29N 49°12' W 122°55'0 0.0
2018-Jun-14 14:00N 49°12' W 122°55'0 0.0
2018-Jun-14 13:29N 49°12' W 122°55'0 0.0
2018-Jun-14 13:00N 49°12' W 122°55'0 0.0
2018-Jun-14 12:29N 49°12' W 122°55'0 0.0
2018-Jun-14 12:00N 49°12' W 122°55'0 0.0
2018-Jun-14 11:30N 49°12' W 122°55'0 0.9
2018-Jun-14 11:00N 49°12' W 122°55'1 2.8
2018-Jun-14 10:30N 49°10' W 122°55'2 3.7
2018-Jun-14 09:59N 49°09' W 122°58'2 3.6
2018-Jun-14 09:31N 49°09' W 123°01'2 4.6
2018-Jun-14 09:00N 49°08' W 123°04'2 4.7
2018-Jun-14 08:30N 49°07' W 123°07'2 4.2
2018-Jun-14 07:59N 49°07' W 123°10'2 4.0
2018-Jun-14 07:30N 49°08' W 123°13'2 3.9
2018-Jun-14 07:00N 49°07' W 123°16'2 4.5
2018-Jun-14 06:30N 49°06' W 123°18'1 1.9
2018-Jun-14 06:00N 49°07' W 123°20'0 0.5
2018-Jun-14 05:28N 49°07' W 123°20'2 3.1
2018-Jun-14 04:59N 49°08' W 123°22'3 6.5
2018-Jun-14 04:28N 49°09' W 123°26'4 6.7
2018-Jun-14 03:56N 49°11' W 123°30'25 6.0
2018-Jun-13 23:49N 49°27' W 123°60'2 4.8
2018-Jun-13 23:30N 49°28' W 124°01'2 4.9
2018-Jun-13 23:00N 49°30' W 124°04'3 5.1
2018-Jun-13 22:30N 49°32' W 124°06'3 5.4
2018-Jun-13 22:00N 49°34' W 124°09'3 5.3
2018-Jun-13 21:30N 49°36' W 124°12'  
Track history (hours):
 
Tides and Currents Weather Stations Pressure Air Temp Water Temp Dewpoint Dewpoint Depression Visibility Wind Speed Wind Dir Waves Ship Positions

Seaspan Cavaler

Last reported at 2018-Jun-23 21:30 UTC. Time now 2018-Jun-23 21:45 UTC.
Position N 49°04' W 123°28'.

Length 24 m.

Type: Towing. MMSI: 316003659.

Date/timePositionNaut miles runAvg speedWind from/ knotsBaromVisibWave heightAir tempDewpointWater temp
2018-Jun-23 21:30N 49°04' W 123°28'9 6.7
2018-Jun-23 20:13N 48°57' W 123°37'1 6.7
2018-Jun-23 20:01N 48°56' W 123°37'3 6.8
2018-Jun-23 19:31N 48°53' W 123°37'1 1.2
2018-Jun-23 18:53N 48°52' W 123°39'0 0.0
2018-Jun-23 18:30N 48°52' W 123°39'0 0.0
2018-Jun-23 17:21N 48°52' W 123°39'0 0.0
2018-Jun-23 16:58N 48°52' W 123°39'0 0.0
2018-Jun-23 14:05N 48°52' W 123°39'0 0.0
2018-Jun-23 13:56N 48°52' W 123°39'0 0.0
2018-Jun-23 03:53N 48°52' W 123°38'2 5.6
2018-Jun-23 03:30N 48°54' W 123°37'5 8.3
2018-Jun-23 02:55N 48°59' W 123°37'34 7.6
2018-Jun-22 22:28N 49°28' W 124°03'6 6.8
2018-Jun-22 21:36N 49°33' W 124°08'2 7.1
2018-Jun-22 21:17N 49°35' W 124°11'5 7.7
2018-Jun-22 20:37N 49°39' W 124°16'1 6.6
2018-Jun-22 20:31N 49°39' W 124°16'2 4.8
2018-Jun-22 20:00N 49°41' W 124°19'2 5.0
2018-Jun-22 19:31N 49°43' W 124°21'3 6.8
2018-Jun-22 19:00N 49°45' W 124°26'3 6.9
2018-Jun-22 18:31N 49°47' W 124°30'4 7.3
2018-Jun-22 18:00N 49°50' W 124°33'3 5.1
2018-Jun-22 17:30N 49°52' W 124°34'0 0.2
2018-Jun-22 17:00N 49°52' W 124°34'0 0.0
2018-Jun-22 16:29N 49°52' W 124°34'0 0.0
2018-Jun-22 16:01N 49°52' W 124°34'0 0.0
2018-Jun-22 15:30N 49°52' W 124°34'0 0.1
2018-Jun-22 15:00N 49°52' W 124°34'2 3.5
2018-Jun-22 14:30N 49°51' W 124°34'4 7.1
2018-Jun-22 14:00N 49°47' W 124°31'4 8.3
2018-Jun-22 13:30N 49°45' W 124°26'4 8.1
2018-Jun-22 13:00N 49°43' W 124°20'5 9.3
2018-Jun-22 12:29N 49°40' W 124°16'5 9.8
2018-Jun-22 11:57N 49°36' W 124°10'510.0
2018-Jun-22 11:29N 49°32' W 124°06'38 8.0
2018-Jun-22 06:46N 48°59' W 123°37'2 5.2
2018-Jun-22 06:22N 48°57' W 123°37'2 5.0
2018-Jun-22 06:01N 48°55' W 123°37'2 4.6
2018-Jun-22 05:30N 48°53' W 123°36'2 2.9
2018-Jun-22 04:59N 48°52' W 123°39'0 0.0
2018-Jun-22 04:04N 48°52' W 123°39'0 0.0
2018-Jun-22 03:57N 48°52' W 123°39'0 0.0
2018-Jun-21 23:22N 48°52' W 123°39'0 0.1
2018-Jun-21 20:47N 48°52' W 123°38'1 2.8
2018-Jun-21 20:31N 48°53' W 123°37'4 7.4
2018-Jun-21 20:00N 48°56' W 123°37'3 6.5
2018-Jun-21 19:29N 48°60' W 123°36'8 4.2
2018-Jun-21 17:39N 49°07' W 123°31'1 4.2
2018-Jun-21 17:23N 49°08' W 123°30'3 4.1
2018-Jun-21 16:43N 49°10' W 123°28'1 4.5
2018-Jun-21 16:27N 49°11' W 123°27'2 5.0
2018-Jun-21 15:59N 49°13' W 123°25'3 5.2
2018-Jun-21 15:30N 49°15' W 123°23'3 5.1
2018-Jun-21 14:59N 49°17' W 123°20'2 5.0
2018-Jun-21 14:30N 49°19' W 123°18'3 7.1
2018-Jun-21 14:00N 49°19' W 123°12'4 8.4
2018-Jun-21 13:31N 49°18' W 123°06'0 0.8
2018-Jun-21 13:00N 49°19' W 123°06'0 0.0
2018-Jun-21 12:30N 49°19' W 123°06'0 0.0
2018-Jun-21 12:00N 49°19' W 123°06'0 0.0
2018-Jun-21 11:30N 49°19' W 123°06'0 0.0
2018-Jun-21 11:01N 49°19' W 123°06'0 0.0
2018-Jun-21 10:31N 49°19' W 123°06'0 0.3
2018-Jun-21 10:01N 49°19' W 123°06'0 0.0
2018-Jun-21 09:30N 49°19' W 123°06'0 0.0
2018-Jun-21 08:58N 49°19' W 123°06'0 0.0
2018-Jun-21 08:31N 49°19' W 123°06'0 0.0
2018-Jun-21 08:01N 49°19' W 123°06'0 0.0
2018-Jun-21 07:31N 49°19' W 123°06'0 0.0
2018-Jun-21 07:01N 49°19' W 123°06'0 0.0
2018-Jun-21 06:31N 49°19' W 123°06'0 0.0
2018-Jun-21 06:01N 49°19' W 123°06'0 0.0
2018-Jun-21 05:31N 49°19' W 123°06'0 0.0
2018-Jun-21 05:01N 49°19' W 123°06'0 0.0
2018-Jun-21 04:31N 49°19' W 123°06'0 0.0
2018-Jun-21 04:01N 49°19' W 123°06'0 0.0
2018-Jun-21 03:31N 49°19' W 123°06'0 0.0
2018-Jun-21 03:00N 49°19' W 123°06'0 0.0
2018-Jun-21 02:30N 49°19' W 123°06'0 0.0
2018-Jun-21 01:59N 49°19' W 123°06'0 0.0
2018-Jun-21 01:30N 49°19' W 123°06'0 0.0
2018-Jun-21 01:00N 49°19' W 123°06'0 0.0
2018-Jun-21 00:29N 49°19' W 123°06'0 0.0
2018-Jun-20 23:57N 49°19' W 123°06'0 0.0
2018-Jun-20 23:30N 49°19' W 123°06'0 0.0
2018-Jun-20 23:00N 49°19' W 123°06'0 0.0
2018-Jun-20 22:28N 49°19' W 123°06'0 0.0
2018-Jun-20 22:00N 49°19' W 123°06'0 0.0
2018-Jun-20 21:30N 49°19' W 123°06'0 0.0
2018-Jun-20 21:01N 49°19' W 123°06'0 0.0
2018-Jun-20 20:31N 49°19' W 123°06'0 0.0
2018-Jun-20 20:00N 49°19' W 123°06'0 0.0
2018-Jun-20 19:31N 49°19' W 123°06'0 0.0
2018-Jun-20 19:01N 49°19' W 123°06'0 0.0
2018-Jun-20 18:30N 49°19' W 123°06'0 0.0
2018-Jun-20 18:00N 49°19' W 123°06'0 0.0
2018-Jun-20 17:31N 49°19' W 123°06'0 0.0
2018-Jun-20 17:00N 49°19' W 123°06'0 0.0
2018-Jun-20 16:31N 49°19' W 123°06'0 0.0
2018-Jun-20 16:01N 49°19' W 123°06'0 0.0
2018-Jun-20 15:31N 49°19' W 123°06'0 0.0
2018-Jun-20 15:00N 49°19' W 123°06'0 0.0
2018-Jun-20 14:31N 49°19' W 123°06'0 0.0
2018-Jun-20 14:01N 49°19' W 123°06'0 0.0
2018-Jun-20 13:29N 49°19' W 123°06'0 0.0
2018-Jun-20 13:00N 49°19' W 123°06'0 0.0
2018-Jun-20 12:31N 49°19' W 123°06'0 0.0
2018-Jun-20 12:01N 49°19' W 123°06'0 0.0
2018-Jun-20 11:31N 49°19' W 123°06'0 0.0
2018-Jun-20 11:01N 49°19' W 123°06'0 0.0
2018-Jun-20 10:31N 49°19' W 123°06'0 0.0
2018-Jun-20 10:01N 49°19' W 123°06'0 0.0
2018-Jun-20 09:30N 49°19' W 123°06'0 0.0
2018-Jun-20 09:00N 49°19' W 123°06'0 0.0
2018-Jun-20 08:30N 49°19' W 123°06'0 0.0
2018-Jun-20 08:01N 49°19' W 123°06'0 0.0
2018-Jun-20 07:31N 49°19' W 123°06'0 0.0
2018-Jun-20 07:01N 49°19' W 123°06'0 0.0
2018-Jun-20 06:31N 49°19' W 123°06'0 0.0
2018-Jun-20 06:01N 49°19' W 123°06'0 0.0
2018-Jun-20 05:30N 49°19' W 123°06'0 0.0
2018-Jun-20 05:01N 49°19' W 123°06'0 0.0
2018-Jun-20 04:30N 49°19' W 123°06'0 0.0
2018-Jun-20 04:01N 49°19' W 123°06'0 0.0
2018-Jun-20 03:30N 49°19' W 123°06'0 0.0
2018-Jun-20 03:01N 49°19' W 123°06'0 0.0
2018-Jun-20 02:30N 49°19' W 123°06'0 0.0
2018-Jun-20 02:01N 49°19' W 123°06'0 0.0
2018-Jun-20 01:31N 49°19' W 123°06'0 0.0
2018-Jun-20 01:00N 49°19' W 123°06'0 0.0
2018-Jun-20 00:31N 49°19' W 123°06'0 0.0
2018-Jun-20 00:01N 49°19' W 123°06'0 0.0
2018-Jun-19 23:31N 49°19' W 123°06'0 0.0
2018-Jun-19 23:00N 49°19' W 123°06'0 0.0
2018-Jun-19 22:31N 49°19' W 123°06'0 0.0
2018-Jun-19 22:01N 49°19' W 123°06'0 0.0
2018-Jun-18 19:37N 49°19' W 123°06'0 0.0
2018-Jun-18 19:29N 49°19' W 123°06'0 0.0
2018-Jun-18 18:59N 49°19' W 123°06'0 0.0
2018-Jun-18 02:24N 49°19' W 123°06'0 0.0
2018-Jun-18 02:00N 49°19' W 123°06'0 0.0
2018-Jun-18 01:30N 49°19' W 123°06'0 0.0
2018-Jun-18 01:00N 49°19' W 123°06'0 0.0
2018-Jun-18 00:30N 49°19' W 123°06'1 2.4
2018-Jun-18 00:00N 49°18' W 123°07'0 0.0
2018-Jun-17 23:28N 49°18' W 123°07'0 0.0
2018-Jun-17 23:00N 49°18' W 123°07'0 0.0
2018-Jun-17 22:30N 49°18' W 123°07'1 2.4
2018-Jun-17 22:01N 49°19' W 123°06'0 0.5
2018-Jun-17 21:31N 49°18' W 123°06'3 6.6
2018-Jun-17 21:00N 49°19' W 123°11'4 8.5
2018-Jun-17 20:30N 49°17' W 123°17'5 8.9
2018-Jun-17 20:00N 49°13' W 123°18'4 8.5
2018-Jun-17 19:30N 49°09' W 123°19'4 5.9
2018-Jun-17 18:48N 49°08' W 123°13'311.9
2018-Jun-17 18:31N 49°07' W 123°08'610.6
2018-Jun-17 17:59N 49°09' W 123°01'3 5.9
2018-Jun-17 17:30N 49°10' W 122°56'2 4.5
2018-Jun-17 17:00N 49°12' W 122°54'1 2.4
2018-Jun-17 16:30N 49°11' W 122°55'2 4.1
2018-Jun-17 16:00N 49°09' W 122°58'2 3.2
2018-Jun-17 15:30N 49°09' W 123°00'2 4.6
2018-Jun-17 15:00N 49°08' W 123°03'3 4.8
2018-Jun-17 14:29N 49°07' W 123°07'2 4.5
2018-Jun-17 14:00N 49°07' W 123°10'2 4.4
2018-Jun-17 13:30N 49°08' W 123°13'2 4.2
2018-Jun-17 13:00N 49°07' W 123°16'2 4.5
2018-Jun-17 12:30N 49°06' W 123°19'3 6.3
2018-Jun-17 12:00N 49°09' W 123°21'3 6.2
2018-Jun-17 11:30N 49°12' W 123°22'3 5.8
2018-Jun-17 11:00N 49°15' W 123°22'2 3.9
2018-Jun-17 10:29N 49°17' W 123°23'2 3.5
2018-Jun-17 09:59N 49°17' W 123°25'3 5.4
2018-Jun-17 09:30N 49°19' W 123°29'22 5.8
2018-Jun-17 05:42N 49°28' W 123°60'1 5.9
2018-Jun-17 05:27N 49°29' W 124°01'3 6.4
2018-Jun-17 05:00N 49°31' W 124°04'4 6.8
2018-Jun-17 04:28N 49°33' W 124°08'3 6.8
2018-Jun-17 03:59N 49°36' W 124°11'4 7.1
2018-Jun-17 03:29N 49°39' W 124°15'3 6.5
2018-Jun-17 03:00N 49°41' W 124°18'3 6.2
2018-Jun-17 02:30N 49°43' W 124°21'3 6.4
2018-Jun-17 02:00N 49°45' W 124°26'3 6.1
2018-Jun-17 01:30N 49°46' W 124°29'3 6.3
2018-Jun-17 01:01N 49°49' W 124°33'3 6.3
2018-Jun-17 00:30N 49°51' W 124°35'1 1.7
2018-Jun-17 00:01N 49°52' W 124°34'0 0.1
2018-Jun-16 23:31N 49°52' W 124°34'0 0.9
2018-Jun-16 23:00N 49°52' W 124°34'2 4.1
2018-Jun-16 22:30N 49°50' W 124°33'3 5.3
2018-Jun-16 22:00N 49°47' W 124°31'3 5.3
2018-Jun-16 21:30N 49°46' W 124°28'3 5.3
2018-Jun-16 21:00N 49°45' W 124°24'2 4.8
2018-Jun-16 20:29N 49°43' W 124°21'2 4.3
2018-Jun-16 20:00N 49°42' W 124°18'2 4.2
2018-Jun-16 19:30N 49°40' W 124°16'2 4.1
2018-Jun-16 19:00N 49°39' W 124°14'2 4.3
2018-Jun-16 18:30N 49°37' W 124°12'2 4.6
2018-Jun-16 18:00N 49°36' W 124°09'2 4.3
2018-Jun-16 17:30N 49°34' W 124°07'2 4.1
2018-Jun-16 17:00N 49°32' W 124°05'2 4.2
2018-Jun-16 16:30N 49°31' W 124°04'2 4.2
2018-Jun-16 15:59N 49°29' W 124°02'8 4.9
2018-Jun-16 14:20N 49°25' W 123°51'12 4.9
2018-Jun-16 11:59N 49°22' W 123°33'3 5.9
2018-Jun-16 11:28N 49°23' W 123°29'3 5.9
2018-Jun-16 10:59N 49°24' W 123°25'5 6.0
2018-Jun-16 10:13N 49°25' W 123°18'2 4.3
2018-Jun-16 09:52N 49°24' W 123°18'2 4.7
2018-Jun-16 09:30N 49°22' W 123°19'1 3.0
2018-Jun-16 09:01N 49°21' W 123°19'3 6.3
2018-Jun-16 08:30N 49°18' W 123°18'3 6.2
2018-Jun-16 08:00N 49°14' W 123°19'3 5.4
2018-Jun-16 07:31N 49°12' W 123°19'2 4.5
2018-Jun-16 07:00N 49°10' W 123°19'2 4.3
2018-Jun-16 06:30N 49°07' W 123°19'3 2.9
2018-Jun-16 05:35N 49°07' W 123°15'1 6.0
2018-Jun-16 05:26N 49°08' W 123°14'3 6.6
2018-Jun-16 04:59N 49°07' W 123°10'3 6.3
2018-Jun-16 04:29N 49°07' W 123°05'3 6.2
2018-Jun-16 04:00N 49°09' W 123°01'2 4.6
2018-Jun-16 03:30N 49°09' W 122°58'0 0.9
2018-Jun-16 03:00N 49°09' W 122°57'0 0.0
2018-Jun-16 02:30N 49°09' W 122°57'3 5.8
2018-Jun-16 02:00N 49°12' W 122°54'3 5.1
2018-Jun-16 01:30N 49°10' W 122°57'1 1.3
2018-Jun-16 01:00N 49°09' W 122°58'3 6.6
2018-Jun-16 00:30N 49°09' W 123°03'3 6.9
2018-Jun-16 00:00N 49°07' W 123°07'3 6.7
2018-Jun-15 23:29N 49°07' W 123°12'3 6.6
2018-Jun-15 23:00N 49°07' W 123°17'3 5.0
2018-Jun-15 22:31N 49°08' W 123°20'5 8.6
2018-Jun-15 21:59N 49°11' W 123°24'4 8.6
2018-Jun-15 21:30N 49°16' W 123°26'10 8.2
2018-Jun-15 20:20N 49°25' W 123°27'6 1.1
2018-Jun-15 14:24N 49°31' W 123°29'2 3.6
2018-Jun-15 13:54N 49°30' W 123°28'2 5.6
2018-Jun-15 13:30N 49°27' W 123°28'2 4.8
2018-Jun-15 12:59N 49°25' W 123°26'3 4.7
2018-Jun-15 12:23N 49°22' W 123°26'2 4.9
2018-Jun-15 11:58N 49°20' W 123°27'3 5.5
2018-Jun-15 11:30N 49°18' W 123°26'3 6.1
2018-Jun-15 11:00N 49°15' W 123°25'3 6.3
2018-Jun-15 10:29N 49°11' W 123°25'3 5.8
2018-Jun-15 09:58N 49°08' W 123°24'3 6.1
2018-Jun-15 09:29N 49°07' W 123°20'4 7.9
2018-Jun-15 08:59N 49°08' W 123°15'5 9.4
2018-Jun-15 08:29N 49°07' W 123°08'5 9.3
2018-Jun-15 08:00N 49°09' W 123°02'3 6.5
2018-Jun-15 07:30N 49°10' W 122°57'0 0.0
2018-Jun-15 07:00N 49°10' W 122°57'0 0.0
2018-Jun-15 06:30N 49°10' W 122°57'0 0.0
2018-Jun-15 06:00N 49°10' W 122°57'0 0.0
2018-Jun-15 05:30N 49°10' W 122°57'0 0.0
2018-Jun-15 04:59N 49°10' W 122°57'0 0.0
2018-Jun-15 04:30N 49°10' W 122°57'0 0.0
2018-Jun-15 04:00N 49°10' W 122°57'0 0.0
2018-Jun-15 03:30N 49°10' W 122°57'0 0.0
2018-Jun-15 03:00N 49°10' W 122°57'0 0.0
2018-Jun-15 02:30N 49°10' W 122°57'0 0.0
2018-Jun-15 02:00N 49°10' W 122°57'0 0.0
2018-Jun-15 01:30N 49°10' W 122°57'0 0.0
2018-Jun-15 01:00N 49°10' W 122°57'0 0.8
2018-Jun-15 00:30N 49°09' W 122°57'0 0.0
2018-Jun-15 00:00N 49°09' W 122°57'0 0.0
2018-Jun-14 23:28N 49°09' W 122°57'3 6.6
2018-Jun-14 23:00N 49°12' W 122°55'0 0.3
2018-Jun-14 22:31N 49°12' W 122°55'0 0.0
2018-Jun-14 22:00N 49°12' W 122°55'0 0.0
2018-Jun-14 21:30N 49°12' W 122°55'0 0.0
2018-Jun-14 21:00N 49°12' W 122°55'0 0.0
2018-Jun-14 20:30N 49°12' W 122°55'0 0.0
2018-Jun-14 20:00N 49°12' W 122°55'0 0.0
2018-Jun-14 19:30N 49°12' W 122°55'0 0.0
2018-Jun-14 19:00N 49°12' W 122°55'0 0.0
2018-Jun-14 18:30N 49°12' W 122°55'0 0.0
2018-Jun-14 18:00N 49°12' W 122°55'0 0.0
2018-Jun-14 17:30N 49°12' W 122°55'0 0.0
2018-Jun-14 17:00N 49°12' W 122°55'0 0.0
2018-Jun-14 16:30N 49°12' W 122°55'0 0.0
2018-Jun-14 16:00N 49°12' W 122°55'0 0.0
2018-Jun-14 15:30N 49°12' W 122°55'0 0.0
2018-Jun-14 14:59N 49°12' W 122°55'0 0.0
2018-Jun-14 14:29N 49°12' W 122°55'0 0.0
2018-Jun-14 14:00N 49°12' W 122°55'0 0.0
2018-Jun-14 13:29N 49°12' W 122°55'0 0.0
2018-Jun-14 13:00N 49°12' W 122°55'0 0.0
2018-Jun-14 12:29N 49°12' W 122°55'0 0.0
2018-Jun-14 12:00N 49°12' W 122°55'0 0.0
2018-Jun-14 11:30N 49°12' W 122°55'0 0.9
2018-Jun-14 11:00N 49°12' W 122°55'1 2.8
2018-Jun-14 10:30N 49°10' W 122°55'2 3.7
2018-Jun-14 09:59N 49°09' W 122°58'2 3.6
2018-Jun-14 09:31N 49°09' W 123°01'2 4.6
2018-Jun-14 09:00N 49°08' W 123°04'2 4.7
2018-Jun-14 08:30N 49°07' W 123°07'2 4.2
2018-Jun-14 07:59N 49°07' W 123°10'2 4.0
2018-Jun-14 07:30N 49°08' W 123°13'2 3.9
2018-Jun-14 07:00N 49°07' W 123°16'2 4.5
2018-Jun-14 06:30N 49°06' W 123°18'1 1.9
2018-Jun-14 06:00N 49°07' W 123°20'0 0.5
2018-Jun-14 05:28N 49°07' W 123°20'2 3.1
2018-Jun-14 04:59N 49°08' W 123°22'3 6.5
2018-Jun-14 04:28N 49°09' W 123°26'4 6.7
2018-Jun-14 03:56N 49°11' W 123°30'25 6.0
2018-Jun-13 23:49N 49°27' W 123°60'2 4.8
2018-Jun-13 23:30N 49°28' W 124°01'2 4.9
2018-Jun-13 23:00N 49°30' W 124°04'3 5.1
2018-Jun-13 22:30N 49°32' W 124°06'3 5.4
2018-Jun-13 22:00N 49°34' W 124°09'3 5.3
2018-Jun-13 21:30N 49°36' W 124°12'  

Dump ship's entire track history